sensor_id;sensor_type;location;lat;lon;timestamp;P1;durP1;ratioP1;P2;durP2;ratioP2
2906;SDS011;1463;51.070;16.998;2023-06-14T00:01:48;4.68;;;2.70;;
2906;SDS011;1463;51.070;16.998;2023-06-14T00:04:17;4.90;;;3.38;;
2906;SDS011;1463;51.070;16.998;2023-06-14T00:06:46;7.88;;;3.30;;
2906;SDS011;1463;51.070;16.998;2023-06-14T00:09:13;4.72;;;3.58;;
2906;SDS011;1463;51.070;16.998;2023-06-14T00:11:42;7.18;;;3.40;;
2906;SDS011;1463;51.070;16.998;2023-06-14T00:14:11;4.53;;;2.83;;
2906;SDS011;1463;51.070;16.998;2023-06-14T00:16:39;6.70;;;3.60;;
2906;SDS011;1463;51.070;16.998;2023-06-14T00:19:07;4.53;;;3.08;;
2906;SDS011;1463;51.070;16.998;2023-06-14T00:21:37;4.50;;;2.70;;
2906;SDS011;1463;51.070;16.998;2023-06-14T00:24:05;5.32;;;3.53;;
2906;SDS011;1463;51.070;16.998;2023-06-14T00:26:34;5.03;;;3.10;;
2906;SDS011;1463;51.070;16.998;2023-06-14T00:29:01;5.93;;;3.90;;
2906;SDS011;1463;51.070;16.998;2023-06-14T00:31:29;5.57;;;3.25;;
2906;SDS011;1463;51.070;16.998;2023-06-14T00:33:56;5.95;;;3.08;;
2906;SDS011;1463;51.070;16.998;2023-06-14T00:36:24;4.97;;;3.50;;
2906;SDS011;1463;51.070;16.998;2023-06-14T00:38:52;5.25;;;3.17;;
2906;SDS011;1463;51.070;16.998;2023-06-14T00:41:20;4.93;;;2.92;;
2906;SDS011;1463;51.070;16.998;2023-06-14T00:43:47;5.32;;;2.88;;
2906;SDS011;1463;51.070;16.998;2023-06-14T00:46:15;4.93;;;3.20;;
2906;SDS011;1463;51.070;16.998;2023-06-14T00:48:42;5.65;;;3.50;;
2906;SDS011;1463;51.070;16.998;2023-06-14T00:51:10;5.28;;;3.85;;
2906;SDS011;1463;51.070;16.998;2023-06-14T00:53:37;5.65;;;3.33;;
2906;SDS011;1463;51.070;16.998;2023-06-14T00:56:07;4.32;;;3.47;;
2906;SDS011;1463;51.070;16.998;2023-06-14T00:58:35;5.60;;;2.88;;
2906;SDS011;1463;51.070;16.998;2023-06-14T01:01:02;4.50;;;3.30;;
2906;SDS011;1463;51.070;16.998;2023-06-14T01:03:29;5.53;;;2.53;;
2906;SDS011;1463;51.070;16.998;2023-06-14T01:05:59;4.95;;;3.80;;
2906;SDS011;1463;51.070;16.998;2023-06-14T01:08:37;5.70;;;3.50;;
2906;SDS011;1463;51.070;16.998;2023-06-14T01:11:16;6.18;;;3.30;;
2906;SDS011;1463;51.070;16.998;2023-06-14T01:13:51;4.80;;;3.22;;
2906;SDS011;1463;51.070;16.998;2023-06-14T01:16:20;5.47;;;3.63;;
2906;SDS011;1463;51.070;16.998;2023-06-14T01:18:47;5.72;;;3.75;;
2906;SDS011;1463;51.070;16.998;2023-06-14T01:21:21;4.60;;;3.30;;
2906;SDS011;1463;51.070;16.998;2023-06-14T01:23:50;7.47;;;4.25;;
2906;SDS011;1463;51.070;16.998;2023-06-14T01:26:20;9.45;;;3.92;;
2906;SDS011;1463;51.070;16.998;2023-06-14T01:28:47;4.30;;;3.05;;
2906;SDS011;1463;51.070;16.998;2023-06-14T01:31:18;5.40;;;3.75;;
2906;SDS011;1463;51.070;16.998;2023-06-14T01:33:47;5.85;;;3.53;;
2906;SDS011;1463;51.070;16.998;2023-06-14T01:36:16;7.43;;;3.70;;
2906;SDS011;1463;51.070;16.998;2023-06-14T01:38:45;6.32;;;3.92;;
2906;SDS011;1463;51.070;16.998;2023-06-14T01:41:16;4.38;;;3.30;;
2906;SDS011;1463;51.070;16.998;2023-06-14T01:43:46;6.40;;;4.38;;
2906;SDS011;1463;51.070;16.998;2023-06-14T01:46:15;5.60;;;3.65;;
2906;SDS011;1463;51.070;16.998;2023-06-14T01:48:43;5.65;;;3.75;;
2906;SDS011;1463;51.070;16.998;2023-06-14T01:51:10;5.60;;;3.80;;
2906;SDS011;1463;51.070;16.998;2023-06-14T01:53:38;5.70;;;3.80;;
2906;SDS011;1463;51.070;16.998;2023-06-14T01:56:06;7.05;;;3.90;;
2906;SDS011;1463;51.070;16.998;2023-06-14T01:58:35;5.63;;;3.55;;
2906;SDS011;1463;51.070;16.998;2023-06-14T02:01:02;5.75;;;3.80;;
2906;SDS011;1463;51.070;16.998;2023-06-14T02:03:30;5.60;;;3.38;;
2906;SDS011;1463;51.070;16.998;2023-06-14T02:05:57;7.85;;;3.80;;
2906;SDS011;1463;51.070;16.998;2023-06-14T02:08:25;5.63;;;3.28;;
2906;SDS011;1463;51.070;16.998;2023-06-14T02:10:52;4.20;;;3.40;;
2906;SDS011;1463;51.070;16.998;2023-06-14T02:13:20;5.60;;;3.53;;
2906;SDS011;1463;51.070;16.998;2023-06-14T02:15:49;4.95;;;3.40;;
2906;SDS011;1463;51.070;16.998;2023-06-14T02:18:19;6.60;;;4.22;;
2906;SDS011;1463;51.070;16.998;2023-06-14T02:20:47;5.72;;;4.05;;
2906;SDS011;1463;51.070;16.998;2023-06-14T02:23:15;7.93;;;4.15;;
2906;SDS011;1463;51.070;16.998;2023-06-14T02:25:42;7.60;;;4.20;;
2906;SDS011;1463;51.070;16.998;2023-06-14T02:28:10;7.57;;;4.07;;
2906;SDS011;1463;51.070;16.998;2023-06-14T02:30:37;4.78;;;3.60;;
2906;SDS011;1463;51.070;16.998;2023-06-14T02:33:07;7.03;;;4.15;;
2906;SDS011;1463;51.070;16.998;2023-06-14T02:35:37;6.35;;;4.25;;
2906;SDS011;1463;51.070;16.998;2023-06-14T02:38:05;7.05;;;3.78;;
2906;SDS011;1463;51.070;16.998;2023-06-14T02:40:32;5.15;;;4.13;;
2906;SDS011;1463;51.070;16.998;2023-06-14T02:42:59;7.97;;;4.40;;
2906;SDS011;1463;51.070;16.998;2023-06-14T02:45:27;6.22;;;4.22;;
2906;SDS011;1463;51.070;16.998;2023-06-14T02:47:54;9.00;;;4.60;;
2906;SDS011;1463;51.070;16.998;2023-06-14T02:50:23;6.68;;;4.47;;
2906;SDS011;1463;51.070;16.998;2023-06-14T02:52:51;9.65;;;4.40;;
2906;SDS011;1463;51.070;16.998;2023-06-14T02:55:21;4.97;;;3.28;;
2906;SDS011;1463;51.070;16.998;2023-06-14T02:57:48;6.35;;;3.92;;
2906;SDS011;1463;51.070;16.998;2023-06-14T03:00:16;5.82;;;4.35;;
2906;SDS011;1463;51.070;16.998;2023-06-14T03:02:44;7.50;;;3.80;;
2906;SDS011;1463;51.070;16.998;2023-06-14T03:05:12;7.60;;;4.28;;
2906;SDS011;1463;51.070;16.998;2023-06-14T03:07:41;5.95;;;4.20;;
2906;SDS011;1463;51.070;16.998;2023-06-14T03:10:10;5.47;;;3.92;;
2906;SDS011;1463;51.070;16.998;2023-06-14T03:12:38;5.95;;;3.85;;
2906;SDS011;1463;51.070;16.998;2023-06-14T03:15:06;7.00;;;4.30;;
2906;SDS011;1463;51.070;16.998;2023-06-14T03:17:34;7.13;;;4.32;;
2906;SDS011;1463;51.070;16.998;2023-06-14T03:20:04;5.88;;;3.72;;
2906;SDS011;1463;51.070;16.998;2023-06-14T03:22:33;11.27;;;4.93;;
2906;SDS011;1463;51.070;16.998;2023-06-14T03:25:02;6.72;;;4.10;;
2906;SDS011;1463;51.070;16.998;2023-06-14T03:27:30;7.00;;;4.15;;
2906;SDS011;1463;51.070;16.998;2023-06-14T03:29:58;6.00;;;3.78;;
2906;SDS011;1463;51.070;16.998;2023-06-14T03:32:25;6.82;;;4.43;;
2906;SDS011;1463;51.070;16.998;2023-06-14T03:34:53;6.60;;;4.03;;
2906;SDS011;1463;51.070;16.998;2023-06-14T03:37:20;6.53;;;3.83;;
2906;SDS011;1463;51.070;16.998;2023-06-14T03:39:48;5.57;;;3.97;;
2906;SDS011;1463;51.070;16.998;2023-06-14T03:42:17;7.72;;;4.60;;
2906;SDS011;1463;51.070;16.998;2023-06-14T03:44:44;6.90;;;5.50;;
2906;SDS011;1463;51.070;16.998;2023-06-14T03:47:11;7.55;;;4.47;;
2906;SDS011;1463;51.070;16.998;2023-06-14T03:49:39;4.85;;;3.53;;
2906;SDS011;1463;51.070;16.998;2023-06-14T03:52:06;6.50;;;4.25;;
2906;SDS011;1463;51.070;16.998;2023-06-14T03:54:33;6.18;;;4.60;;
2906;SDS011;1463;51.070;16.998;2023-06-14T03:57:01;11.02;;;4.88;;
2906;SDS011;1463;51.070;16.998;2023-06-14T03:59:30;8.10;;;4.82;;
2906;SDS011;1463;51.070;16.998;2023-06-14T04:01:57;6.38;;;4.28;;
2906;SDS011;1463;51.070;16.998;2023-06-14T04:04:25;5.82;;;4.28;;
2906;SDS011;1463;51.070;16.998;2023-06-14T04:06:54;9.68;;;3.75;;
2906;SDS011;1463;51.070;16.998;2023-06-14T04:09:24;6.60;;;4.63;;
2906;SDS011;1463;51.070;16.998;2023-06-14T04:11:51;6.78;;;4.10;;
2906;SDS011;1463;51.070;16.998;2023-06-14T04:14:19;7.57;;;4.10;;
2906;SDS011;1463;51.070;16.998;2023-06-14T04:16:48;7.10;;;4.30;;
2906;SDS011;1463;51.070;16.998;2023-06-14T04:19:15;6.88;;;4.95;;
2906;SDS011;1463;51.070;16.998;2023-06-14T04:21:43;6.90;;;5.00;;
2906;SDS011;1463;51.070;16.998;2023-06-14T04:24:10;10.10;;;4.75;;
2906;SDS011;1463;51.070;16.998;2023-06-14T04:26:41;10.10;;;4.50;;
2906;SDS011;1463;51.070;16.998;2023-06-14T04:29:19;10.73;;;5.65;;
2906;SDS011;1463;51.070;16.998;2023-06-14T04:31:50;8.35;;;4.40;;
2906;SDS011;1463;51.070;16.998;2023-06-14T04:34:18;13.75;;;4.57;;
2906;SDS011;1463;51.070;16.998;2023-06-14T04:36:47;8.73;;;5.53;;
2906;SDS011;1463;51.070;16.998;2023-06-14T04:39:18;9.02;;;4.65;;
2906;SDS011;1463;51.070;16.998;2023-06-14T04:41:47;9.05;;;5.13;;
2906;SDS011;1463;51.070;16.998;2023-06-14T04:44:17;7.93;;;4.57;;
2906;SDS011;1463;51.070;16.998;2023-06-14T04:46:45;6.78;;;4.72;;
2906;SDS011;1463;51.070;16.998;2023-06-14T04:49:15;5.63;;;3.97;;
2906;SDS011;1463;51.070;16.998;2023-06-14T04:51:43;9.30;;;5.45;;
2906;SDS011;1463;51.070;16.998;2023-06-14T04:54:12;7.75;;;5.97;;
2906;SDS011;1463;51.070;16.998;2023-06-14T04:56:40;8.88;;;5.32;;
2906;SDS011;1463;51.070;16.998;2023-06-14T04:59:08;7.28;;;4.57;;
2906;SDS011;1463;51.070;16.998;2023-06-14T05:01:36;7.10;;;5.18;;
2906;SDS011;1463;51.070;16.998;2023-06-14T05:04:04;7.50;;;5.40;;
2906;SDS011;1463;51.070;16.998;2023-06-14T05:06:33;10.80;;;5.70;;
2906;SDS011;1463;51.070;16.998;2023-06-14T05:09:01;6.82;;;4.63;;
2906;SDS011;1463;51.070;16.998;2023-06-14T05:11:29;7.90;;;4.72;;
2906;SDS011;1463;51.070;16.998;2023-06-14T05:13:56;7.18;;;4.50;;
2906;SDS011;1463;51.070;16.998;2023-06-14T05:16:24;8.93;;;5.28;;
2906;SDS011;1463;51.070;16.998;2023-06-14T05:18:54;12.52;;;5.85;;
2906;SDS011;1463;51.070;16.998;2023-06-14T05:21:21;7.25;;;5.05;;
2906;SDS011;1463;51.070;16.998;2023-06-14T05:23:50;7.47;;;5.63;;
2906;SDS011;1463;51.070;16.998;2023-06-14T05:26:19;8.05;;;6.20;;
2906;SDS011;1463;51.070;16.998;2023-06-14T05:28:48;9.95;;;5.55;;
2906;SDS011;1463;51.070;16.998;2023-06-14T05:31:17;11.68;;;5.22;;
2906;SDS011;1463;51.070;16.998;2023-06-14T05:33:45;10.43;;;5.18;;
2906;SDS011;1463;51.070;16.998;2023-06-14T05:36:13;8.82;;;5.85;;
2906;SDS011;1463;51.070;16.998;2023-06-14T05:38:41;6.80;;;5.03;;
2906;SDS011;1463;51.070;16.998;2023-06-14T05:41:09;7.00;;;5.75;;
2906;SDS011;1463;51.070;16.998;2023-06-14T05:43:37;7.80;;;5.13;;
2906;SDS011;1463;51.070;16.998;2023-06-14T05:46:04;7.20;;;4.35;;
2906;SDS011;1463;51.070;16.998;2023-06-14T05:48:32;8.48;;;5.97;;
2906;SDS011;1463;51.070;16.998;2023-06-14T05:50:59;6.38;;;5.28;;
2906;SDS011;1463;51.070;16.998;2023-06-14T05:53:27;9.98;;;6.50;;
2906;SDS011;1463;51.070;16.998;2023-06-14T05:55:54;6.53;;;4.72;;
2906;SDS011;1463;51.070;16.998;2023-06-14T05:58:23;7.70;;;5.10;;
2906;SDS011;1463;51.070;16.998;2023-06-14T06:00:51;8.20;;;5.72;;
2906;SDS011;1463;51.070;16.998;2023-06-14T06:03:18;6.95;;;5.80;;
2906;SDS011;1463;51.070;16.998;2023-06-14T06:05:46;11.55;;;5.65;;
2906;SDS011;1463;51.070;16.998;2023-06-14T06:08:13;8.60;;;6.88;;
2906;SDS011;1463;51.070;16.998;2023-06-14T06:10:42;8.77;;;5.47;;
2906;SDS011;1463;51.070;16.998;2023-06-14T06:13:10;8.38;;;5.70;;
2906;SDS011;1463;51.070;16.998;2023-06-14T06:15:38;10.07;;;5.50;;
2906;SDS011;1463;51.070;16.998;2023-06-14T06:18:06;9.93;;;6.47;;
2906;SDS011;1463;51.070;16.998;2023-06-14T06:20:33;12.02;;;7.25;;
2906;SDS011;1463;51.070;16.998;2023-06-14T06:23:01;9.73;;;6.57;;
2906;SDS011;1463;51.070;16.998;2023-06-14T06:25:29;10.13;;;5.82;;
2906;SDS011;1463;51.070;16.998;2023-06-14T06:27:57;9.13;;;6.38;;
2906;SDS011;1463;51.070;16.998;2023-06-14T06:30:24;8.85;;;5.50;;
2906;SDS011;1463;51.070;16.998;2023-06-14T06:32:53;9.10;;;5.65;;
2906;SDS011;1463;51.070;16.998;2023-06-14T06:35:22;9.43;;;5.40;;
2906;SDS011;1463;51.070;16.998;2023-06-14T06:37:49;9.40;;;6.60;;
2906;SDS011;1463;51.070;16.998;2023-06-14T06:40:17;11.50;;;7.15;;
2906;SDS011;1463;51.070;16.998;2023-06-14T06:42:44;10.60;;;6.75;;
2906;SDS011;1463;51.070;16.998;2023-06-14T06:45:12;9.07;;;5.38;;
2906;SDS011;1463;51.070;16.998;2023-06-14T06:47:39;9.05;;;5.95;;
2906;SDS011;1463;51.070;16.998;2023-06-14T06:50:09;9.82;;;6.20;;
2906;SDS011;1463;51.070;16.998;2023-06-14T06:52:36;11.98;;;6.25;;
2906;SDS011;1463;51.070;16.998;2023-06-14T06:55:04;11.15;;;6.90;;
2906;SDS011;1463;51.070;16.998;2023-06-14T06:57:32;9.38;;;6.50;;
2906;SDS011;1463;51.070;16.998;2023-06-14T06:59:59;10.80;;;6.60;;
2906;SDS011;1463;51.070;16.998;2023-06-14T07:02:27;9.65;;;7.13;;
2906;SDS011;1463;51.070;16.998;2023-06-14T07:04:56;9.77;;;6.38;;
2906;SDS011;1463;51.070;16.998;2023-06-14T07:07:25;10.52;;;6.47;;
2906;SDS011;1463;51.070;16.998;2023-06-14T07:09:52;10.30;;;7.30;;
2906;SDS011;1463;51.070;16.998;2023-06-14T07:12:22;9.85;;;6.50;;
2906;SDS011;1463;51.070;16.998;2023-06-14T07:14:50;9.95;;;6.57;;
2906;SDS011;1463;51.070;16.998;2023-06-14T07:17:17;12.02;;;7.43;;
2906;SDS011;1463;51.070;16.998;2023-06-14T07:19:44;12.52;;;7.40;;
2906;SDS011;1463;51.070;16.998;2023-06-14T07:22:12;12.20;;;7.57;;
2906;SDS011;1463;51.070;16.998;2023-06-14T07:24:41;10.65;;;7.43;;
2906;SDS011;1463;51.070;16.998;2023-06-14T07:27:09;13.02;;;6.90;;
2906;SDS011;1463;51.070;16.998;2023-06-14T07:29:38;11.23;;;7.28;;
2906;SDS011;1463;51.070;16.998;2023-06-14T07:32:06;31.65;;;7.68;;
2906;SDS011;1463;51.070;16.998;2023-06-14T07:34:33;11.20;;;6.33;;
2906;SDS011;1463;51.070;16.998;2023-06-14T07:37:02;11.05;;;6.75;;
2906;SDS011;1463;51.070;16.998;2023-06-14T07:39:30;11.35;;;7.97;;
2906;SDS011;1463;51.070;16.998;2023-06-14T07:41:59;11.90;;;6.90;;
2906;SDS011;1463;51.070;16.998;2023-06-14T07:44:29;11.13;;;6.37;;
2906;SDS011;1463;51.070;16.998;2023-06-14T07:46:57;10.37;;;7.67;;
2906;SDS011;1463;51.070;16.998;2023-06-14T07:49:25;10.07;;;7.13;;
2906;SDS011;1463;51.070;16.998;2023-06-14T07:51:53;9.37;;;6.57;;
2906;SDS011;1463;51.070;16.998;2023-06-14T07:54:20;11.77;;;7.63;;
2906;SDS011;1463;51.070;16.998;2023-06-14T07:56:51;9.80;;;6.40;;
2906;SDS011;1463;51.070;16.998;2023-06-14T07:59:20;9.90;;;6.90;;
2906;SDS011;1463;51.070;16.998;2023-06-14T08:01:47;12.18;;;6.70;;
2906;SDS011;1463;51.070;16.998;2023-06-14T08:04:15;10.98;;;6.50;;
2906;SDS011;1463;51.070;16.998;2023-06-14T08:06:42;9.90;;;6.10;;
2906;SDS011;1463;51.070;16.998;2023-06-14T08:09:11;9.10;;;5.87;;
2906;SDS011;1463;51.070;16.998;2023-06-14T08:11:39;9.47;;;6.43;;
2906;SDS011;1463;51.070;16.998;2023-06-14T08:14:07;9.80;;;6.13;;
2906;SDS011;1463;51.070;16.998;2023-06-14T08:16:36;7.80;;;5.60;;
2906;SDS011;1463;51.070;16.998;2023-06-14T08:19:04;7.73;;;5.00;;
2906;SDS011;1463;51.070;16.998;2023-06-14T08:21:31;8.80;;;5.47;;
2906;SDS011;1463;51.070;16.998;2023-06-14T08:24:01;8.30;;;5.73;;
2906;SDS011;1463;51.070;16.998;2023-06-14T08:26:30;9.00;;;4.83;;
2906;SDS011;1463;51.070;16.998;2023-06-14T08:28:57;7.17;;;4.70;;
2906;SDS011;1463;51.070;16.998;2023-06-14T08:31:25;10.50;;;5.50;;
2906;SDS011;1463;51.070;16.998;2023-06-14T08:33:54;8.70;;;5.10;;
2906;SDS011;1463;51.070;16.998;2023-06-14T08:36:21;6.63;;;4.23;;
2906;SDS011;1463;51.070;16.998;2023-06-14T08:38:49;9.20;;;4.90;;
2906;SDS011;1463;51.070;16.998;2023-06-14T08:41:20;7.00;;;4.80;;
2906;SDS011;1463;51.070;16.998;2023-06-14T08:43:49;7.17;;;5.07;;
2906;SDS011;1463;51.070;16.998;2023-06-14T08:46:17;6.13;;;4.20;;
2906;SDS011;1463;51.070;16.998;2023-06-14T08:48:48;9.63;;;5.77;;
2906;SDS011;1463;51.070;16.998;2023-06-14T08:51:19;8.83;;;5.30;;
2906;SDS011;1463;51.070;16.998;2023-06-14T08:53:49;8.17;;;5.53;;
2906;SDS011;1463;51.070;16.998;2023-06-14T08:56:22;12.03;;;6.00;;
2906;SDS011;1463;51.070;16.998;2023-06-14T08:58:53;9.63;;;5.87;;
2906;SDS011;1463;51.070;16.998;2023-06-14T09:01:21;9.23;;;5.33;;
2906;SDS011;1463;51.070;16.998;2023-06-14T09:03:50;8.10;;;4.60;;
2906;SDS011;1463;51.070;16.998;2023-06-14T09:06:21;8.30;;;5.93;;
2906;SDS011;1463;51.070;16.998;2023-06-14T09:08:50;7.53;;;5.30;;
2906;SDS011;1463;51.070;16.998;2023-06-14T09:11:18;14.43;;;5.80;;
2906;SDS011;1463;51.070;16.998;2023-06-14T09:13:46;7.00;;;5.00;;
2906;SDS011;1463;51.070;16.998;2023-06-14T09:16:14;9.77;;;5.73;;
2906;SDS011;1463;51.070;16.998;2023-06-14T09:18:42;7.97;;;4.53;;
2906;SDS011;1463;51.070;16.998;2023-06-14T09:21:13;9.63;;;5.37;;
2906;SDS011;1463;51.070;16.998;2023-06-14T09:23:42;10.80;;;5.63;;
2906;SDS011;1463;51.070;16.998;2023-06-14T09:26:11;7.37;;;5.30;;
2906;SDS011;1463;51.070;16.998;2023-06-14T09:28:43;9.60;;;5.43;;
2906;SDS011;1463;51.070;16.998;2023-06-14T09:31:12;8.77;;;5.30;;
2906;SDS011;1463;51.070;16.998;2023-06-14T09:33:41;8.07;;;4.70;;
2906;SDS011;1463;51.070;16.998;2023-06-14T09:36:14;7.10;;;4.90;;
2906;SDS011;1463;51.070;16.998;2023-06-14T09:38:44;7.00;;;4.27;;
2906;SDS011;1463;51.070;16.998;2023-06-14T09:41:19;6.37;;;4.20;;
2906;SDS011;1463;51.070;16.998;2023-06-14T09:43:47;6.63;;;3.90;;
2906;SDS011;1463;51.070;16.998;2023-06-14T09:46:15;6.27;;;4.17;;
2906;SDS011;1463;51.070;16.998;2023-06-14T09:48:43;9.20;;;4.47;;
2906;SDS011;1463;51.070;16.998;2023-06-14T09:51:11;7.63;;;4.63;;
2906;SDS011;1463;51.070;16.998;2023-06-14T09:53:44;6.73;;;3.87;;
2906;SDS011;1463;51.070;16.998;2023-06-14T09:56:15;7.83;;;4.30;;
2906;SDS011;1463;51.070;16.998;2023-06-14T09:58:47;7.87;;;4.60;;
2906;SDS011;1463;51.070;16.998;2023-06-14T10:01:20;7.37;;;4.13;;
2906;SDS011;1463;51.070;16.998;2023-06-14T10:03:49;6.30;;;4.60;;
2906;SDS011;1463;51.070;16.998;2023-06-14T10:06:19;6.43;;;3.93;;
2906;SDS011;1463;51.070;16.998;2023-06-14T10:08:51;9.00;;;4.30;;
2906;SDS011;1463;51.070;16.998;2023-06-14T10:11:20;10.00;;;3.97;;
2906;SDS011;1463;51.070;16.998;2023-06-14T10:13:48;6.73;;;4.47;;
2906;SDS011;1463;51.070;16.998;2023-06-14T10:16:20;6.07;;;4.40;;
2906;SDS011;1463;51.070;16.998;2023-06-14T10:19:13;8.70;;;5.63;;
2906;SDS011;1463;51.070;16.998;2023-06-14T10:22:01;9.40;;;5.10;;
2906;SDS011;1463;51.070;16.998;2023-06-14T10:24:38;7.50;;;4.18;;
2906;SDS011;1463;51.070;16.998;2023-06-14T10:27:11;7.37;;;5.40;;
2906;SDS011;1463;51.070;16.998;2023-06-14T10:32:35;6.33;;;3.90;;
2906;SDS011;1463;51.070;16.998;2023-06-14T10:35:23;5.70;;;3.63;;
2906;SDS011;1463;51.070;16.998;2023-06-14T10:37:52;5.40;;;3.90;;
2906;SDS011;1463;51.070;16.998;2023-06-14T10:43:23;6.37;;;4.03;;
2906;SDS011;1463;51.070;16.998;2023-06-14T10:46:15;5.97;;;3.43;;
2906;SDS011;1463;51.070;16.998;2023-06-14T10:48:49;4.80;;;3.40;;
2906;SDS011;1463;51.070;16.998;2023-06-14T10:51:24;5.50;;;3.57;;
2906;SDS011;1463;51.070;16.998;2023-06-14T10:53:57;6.10;;;4.03;;
2906;SDS011;1463;51.070;16.998;2023-06-14T10:56:31;5.23;;;3.80;;
2906;SDS011;1463;51.070;16.998;2023-06-14T10:59:01;6.40;;;3.97;;
2906;SDS011;1463;51.070;16.998;2023-06-14T11:01:41;4.27;;;3.33;;
2906;SDS011;1463;51.070;16.998;2023-06-14T11:04:16;5.70;;;3.73;;
2906;SDS011;1463;51.070;16.998;2023-06-14T11:06:47;8.70;;;3.93;;
2906;SDS011;1463;51.070;16.998;2023-06-14T11:12:11;5.13;;;3.70;;
2906;SDS011;1463;51.070;16.998;2023-06-14T11:14:39;7.17;;;4.00;;
2906;SDS011;1463;51.070;16.998;2023-06-14T11:17:07;5.90;;;3.17;;
2906;SDS011;1463;51.070;16.998;2023-06-14T11:19:35;6.20;;;3.00;;
2906;SDS011;1463;51.070;16.998;2023-06-14T11:22:04;5.73;;;4.33;;
2906;SDS011;1463;51.070;16.998;2023-06-14T11:24:32;5.67;;;3.40;;
2906;SDS011;1463;51.070;16.998;2023-06-14T11:27:00;4.93;;;3.20;;
2906;SDS011;1463;51.070;16.998;2023-06-14T11:29:28;3.80;;;3.30;;
2906;SDS011;1463;51.070;16.998;2023-06-14T11:31:57;5.67;;;3.07;;
2906;SDS011;1463;51.070;16.998;2023-06-14T11:34:24;5.70;;;3.57;;
2906;SDS011;1463;51.070;16.998;2023-06-14T11:36:52;4.03;;;3.03;;
2906;SDS011;1463;51.070;16.998;2023-06-14T11:39:24;4.80;;;3.43;;
2906;SDS011;1463;51.070;16.998;2023-06-14T11:41:52;5.43;;;3.60;;
2906;SDS011;1463;51.070;16.998;2023-06-14T11:44:20;5.60;;;4.07;;
2906;SDS011;1463;51.070;16.998;2023-06-14T11:46:50;3.60;;;3.20;;
2906;SDS011;1463;51.070;16.998;2023-06-14T11:49:17;5.80;;;3.80;;
2906;SDS011;1463;51.070;16.998;2023-06-14T11:51:45;6.10;;;3.30;;
2906;SDS011;1463;51.070;16.998;2023-06-14T11:54:15;5.83;;;3.37;;
2906;SDS011;1463;51.070;16.998;2023-06-14T11:56:42;3.97;;;3.17;;
2906;SDS011;1463;51.070;16.998;2023-06-14T11:59:10;8.57;;;4.73;;
2906;SDS011;1463;51.070;16.998;2023-06-14T12:01:42;5.77;;;3.40;;
2906;SDS011;1463;51.070;16.998;2023-06-14T12:04:12;4.73;;;3.10;;
2906;SDS011;1463;51.070;16.998;2023-06-14T12:06:39;6.00;;;3.23;;
2906;SDS011;1463;51.070;16.998;2023-06-14T12:09:08;4.80;;;3.40;;
2906;SDS011;1463;51.070;16.998;2023-06-14T12:11:38;3.50;;;2.30;;
2906;SDS011;1463;51.070;16.998;2023-06-14T12:14:07;4.60;;;3.10;;
2906;SDS011;1463;51.070;16.998;2023-06-14T12:16:36;4.00;;;2.87;;
2906;SDS011;1463;51.070;16.998;2023-06-14T12:19:08;4.47;;;3.17;;
2906;SDS011;1463;51.070;16.998;2023-06-14T12:21:39;9.20;;;3.30;;
2906;SDS011;1463;51.070;16.998;2023-06-14T12:24:07;4.90;;;3.73;;
2906;SDS011;1463;51.070;16.998;2023-06-14T12:26:37;4.03;;;2.80;;
2906;SDS011;1463;51.070;16.998;2023-06-14T12:29:06;3.20;;;2.60;;
2906;SDS011;1463;51.070;16.998;2023-06-14T12:31:35;6.63;;;2.93;;
2906;SDS011;1463;51.070;16.998;2023-06-14T12:34:02;4.83;;;2.83;;
2906;SDS011;1463;51.070;16.998;2023-06-14T12:36:30;4.53;;;3.03;;
2906;SDS011;1463;51.070;16.998;2023-06-14T12:38:59;3.37;;;2.67;;
2906;SDS011;1463;51.070;16.998;2023-06-14T12:41:26;3.67;;;2.23;;
2906;SDS011;1463;51.070;16.998;2023-06-14T12:43:54;4.80;;;2.87;;
2906;SDS011;1463;51.070;16.998;2023-06-14T12:46:24;4.53;;;2.37;;
2906;SDS011;1463;51.070;16.998;2023-06-14T12:48:52;4.17;;;3.00;;
2906;SDS011;1463;51.070;16.998;2023-06-14T12:51:19;8.47;;;2.80;;
2906;SDS011;1463;51.070;16.998;2023-06-14T12:53:47;3.97;;;2.80;;
2906;SDS011;1463;51.070;16.998;2023-06-14T12:56:17;4.07;;;2.90;;
2906;SDS011;1463;51.070;16.998;2023-06-14T12:58:44;6.77;;;3.90;;
2906;SDS011;1463;51.070;16.998;2023-06-14T13:01:11;5.73;;;3.23;;
2906;SDS011;1463;51.070;16.998;2023-06-14T13:03:40;3.80;;;3.13;;
2906;SDS011;1463;51.070;16.998;2023-06-14T13:06:08;5.90;;;3.10;;
2906;SDS011;1463;51.070;16.998;2023-06-14T13:08:35;5.27;;;2.80;;
2906;SDS011;1463;51.070;16.998;2023-06-14T13:11:03;4.53;;;2.47;;
2906;SDS011;1463;51.070;16.998;2023-06-14T13:13:32;6.33;;;3.50;;
2906;SDS011;1463;51.070;16.998;2023-06-14T13:15:59;4.40;;;2.90;;
2906;SDS011;1463;51.070;16.998;2023-06-14T13:18:26;5.50;;;2.87;;
2906;SDS011;1463;51.070;16.998;2023-06-14T13:20:54;4.83;;;3.37;;
2906;SDS011;1463;51.070;16.998;2023-06-14T13:23:21;4.30;;;2.80;;
2906;SDS011;1463;51.070;16.998;2023-06-14T13:25:49;4.77;;;3.50;;
2906;SDS011;1463;51.070;16.998;2023-06-14T13:28:17;5.80;;;4.03;;
2906;SDS011;1463;51.070;16.998;2023-06-14T13:30:47;6.33;;;2.90;;
2906;SDS011;1463;51.070;16.998;2023-06-14T13:33:15;5.77;;;3.10;;
2906;SDS011;1463;51.070;16.998;2023-06-14T13:35:42;4.07;;;2.93;;
2906;SDS011;1463;51.070;16.998;2023-06-14T13:38:10;6.40;;;2.93;;
2906;SDS011;1463;51.070;16.998;2023-06-14T13:40:37;5.50;;;4.00;;
2906;SDS011;1463;51.070;16.998;2023-06-14T13:43:05;5.60;;;3.33;;
2906;SDS011;1463;51.070;16.998;2023-06-14T13:45:32;5.77;;;3.40;;
2906;SDS011;1463;51.070;16.998;2023-06-14T13:48:01;6.40;;;3.77;;
2906;SDS011;1463;51.070;16.998;2023-06-14T13:52:20;5.10;;;3.13;;
2906;SDS011;1463;51.070;16.998;2023-06-14T13:54:00;5.00;;;3.40;;
2906;SDS011;1463;51.070;16.998;2023-06-14T13:56:28;5.30;;;3.53;;
2906;SDS011;1463;51.070;16.998;2023-06-14T13:58:57;4.60;;;3.03;;
2906;SDS011;1463;51.070;16.998;2023-06-14T14:01:26;5.60;;;2.70;;
2906;SDS011;1463;51.070;16.998;2023-06-14T14:03:56;4.60;;;2.80;;
2906;SDS011;1463;51.070;16.998;2023-06-14T14:06:25;4.73;;;3.27;;
2906;SDS011;1463;51.070;16.998;2023-06-14T14:08:53;5.70;;;3.60;;
2906;SDS011;1463;51.070;16.998;2023-06-14T14:11:20;7.17;;;3.57;;
2906;SDS011;1463;51.070;16.998;2023-06-14T14:13:48;3.83;;;3.27;;
2906;SDS011;1463;51.070;16.998;2023-06-14T14:16:15;4.97;;;2.73;;
2906;SDS011;1463;51.070;16.998;2023-06-14T14:18:44;4.80;;;3.00;;
2906;SDS011;1463;51.070;16.998;2023-06-14T14:21:13;4.20;;;3.23;;
2906;SDS011;1463;51.070;16.998;2023-06-14T14:23:40;4.50;;;3.80;;
2906;SDS011;1463;51.070;16.998;2023-06-14T14:26:09;4.63;;;2.80;;
2906;SDS011;1463;51.070;16.998;2023-06-14T14:28:36;4.20;;;2.70;;
2906;SDS011;1463;51.070;16.998;2023-06-14T14:31:04;5.03;;;3.07;;
2906;SDS011;1463;51.070;16.998;2023-06-14T14:33:31;5.77;;;3.10;;
2906;SDS011;1463;51.070;16.998;2023-06-14T14:36:00;8.67;;;3.53;;
2906;SDS011;1463;51.070;16.998;2023-06-14T14:38:30;4.63;;;3.27;;
2906;SDS011;1463;51.070;16.998;2023-06-14T14:40:58;4.47;;;2.70;;
2906;SDS011;1463;51.070;16.998;2023-06-14T14:43:26;4.00;;;2.87;;
2906;SDS011;1463;51.070;16.998;2023-06-14T14:45:56;4.13;;;2.50;;
2906;SDS011;1463;51.070;16.998;2023-06-14T14:48:23;4.20;;;2.70;;
2906;SDS011;1463;51.070;16.998;2023-06-14T14:50:51;5.90;;;3.50;;
2906;SDS011;1463;51.070;16.998;2023-06-14T14:53:19;4.30;;;2.77;;
2906;SDS011;1463;51.070;16.998;2023-06-14T14:55:48;3.70;;;2.63;;
2906;SDS011;1463;51.070;16.998;2023-06-14T14:58:16;6.63;;;3.37;;
2906;SDS011;1463;51.070;16.998;2023-06-14T15:00:44;3.20;;;2.27;;
2906;SDS011;1463;51.070;16.998;2023-06-14T15:03:11;3.73;;;2.30;;
2906;SDS011;1463;51.070;16.998;2023-06-14T15:05:39;4.20;;;2.60;;
2906;SDS011;1463;51.070;16.998;2023-06-14T15:08:07;7.90;;;3.30;;
2906;SDS011;1463;51.070;16.998;2023-06-14T15:10:37;6.60;;;3.20;;
2906;SDS011;1463;51.070;16.998;2023-06-14T15:13:08;5.10;;;3.47;;
2906;SDS011;1463;51.070;16.998;2023-06-14T15:15:35;5.43;;;3.37;;
2906;SDS011;1463;51.070;16.998;2023-06-14T15:18:03;7.03;;;3.70;;
2906;SDS011;1463;51.070;16.998;2023-06-14T15:20:31;6.10;;;4.23;;